Montpelier, Vermont
Current Conditions -  °F | °C
As of 2:51 AM on Thursday 18 Dec 2014 (Local Time) from KMPV Reporting Station
Overcast Overcast  
Wind Chill: 33°   Ceiling: 1900
Heat Index: 33°   Visibility: 9mi
Dew Point: 32°   Wind: 0mph
Humidity: 96%   Direction: NA
Pressure: 29.74"   Gusts: NA
Location:  44.26°N, 72.58°W
Report Text: KMPV 180751Z AUTO 00000KT 9SM SCT014 BKN019 OVC027 01/00 A2974 RMK AO2 UPE07SNB0654E05 SLP083 P0000 T00060000
Loading
Personal Weather Stations






























Interactive Weather Map New forecast layout! Learn more

10-Day Weather Forecast

Advertisements
Track Severe Weather on mobile